Time;durP1;ratioP1;P1;durP2;ratioP2;P2;SDS_P1;SDS_P2;PMS_P1;PMS_P2;Temp;Humidity;BMP_temperature;BMP_pressure;BME280_temperature;BME280_humidity;BME280_pressure;Samples;Min_cycle;Max_cycle;Signal;HPM_P1;HPM_P2
2023/05/06 00:00:36;;;;;;;9.10;7.22;;;10.50;99.90;;;;;;5025561;28;20540;-72
2023/05/06 00:03:02;;;;;;;10.23;7.07;;;10.50;99.90;;;;;;5026830;28;20033;-72
2023/05/06 00:05:27;;;;;;;10.20;6.43;;;10.40;99.90;;;;;;5008805;28;20495;-72
2023/05/06 00:07:53;;;;;;;8.00;5.70;;;10.40;99.90;;;;;;5025911;28;20065;-72
2023/05/06 00:10:20;;;;;;;11.02;5.88;;;10.40;99.90;;;;;;5008884;28;20410;-72
2023/05/06 00:12:45;;;;;;;9.20;5.88;;;10.30;99.90;;;;;;5009194;28;20084;-73
2023/05/06 00:15:11;;;;;;;11.07;6.18;;;10.30;99.90;;;;;;4975590;28;20505;-72
2023/05/06 00:17:37;;;;;;;10.93;6.10;;;10.20;99.90;;;;;;4991779;28;20042;-73
2023/05/06 00:20:03;;;;;;;10.13;6.57;;;10.20;99.90;;;;;;4991884;28;20038;-73
2023/05/06 00:22:29;;;;;;;8.85;6.22;;;10.20;99.90;;;;;;5025044;28;20033;-73
2023/05/06 00:24:55;;;;;;;9.00;6.03;;;10.20;99.90;;;;;;5007507;28;20030;-73
2023/05/06 00:27:20;;;;;;;7.53;6.30;;;10.20;99.90;;;;;;4976575;28;20124;-72
2023/05/06 00:29:46;;;;;;;11.55;7.15;;;10.10;99.90;;;;;;5025109;28;20536;-73
2023/05/06 00:32:12;;;;;;;10.07;6.72;;;10.20;99.90;;;;;;4977844;28;20038;-73
2023/05/06 00:34:37;;;;;;;9.00;6.50;;;10.20;99.90;;;;;;4991127;28;20132;-73
2023/05/06 00:37:03;;;;;;;9.02;6.68;;;10.20;99.90;;;;;;5023918;28;20045;-73
2023/05/06 00:39:29;;;;;;;11.38;6.57;;;10.20;99.90;;;;;;5026175;28;20037;-72
2023/05/06 00:42:01;;;;;;;14.55;8.18;;;10.20;99.90;;;;;;4992197;28;20052;-73
2023/05/06 00:44:27;;;;;;;14.75;7.95;;;10.20;99.90;;;;;;5025803;28;20041;-73
2023/05/06 00:46:54;;;;;;;13.07;8.25;;;10.20;99.90;;;;;;5008509;28;20095;-73
2023/05/06 00:49:20;;;;;;;12.80;8.30;;;10.10;99.90;;;;;;5020179;28;20155;-73
2023/05/06 00:51:47;;;;;;;9.95;7.20;;;10.10;99.90;;;;;;5005058;28;20129;-72
2023/05/06 00:54:12;;;;;;;9.23;6.32;;;10.00;99.90;;;;;;5007775;28;20037;-72
2023/05/06 00:56:39;;;;;;;10.13;6.85;;;10.00;99.90;;;;;;4993700;28;20702;-72
2023/05/06 00:59:05;;;;;;;11.77;7.38;;;9.90;99.90;;;;;;5005656;28;20041;-73
2023/05/06 01:01:32;;;;;;;9.27;5.78;;;9.80;99.90;;;;;;5024469;28;20033;-72
2023/05/06 01:03:58;;;;;;;9.77;6.70;;;9.70;99.90;;;;;;5009106;28;20068;-72
2023/05/06 01:06:34;;;;;;;7.85;6.32;;;9.70;99.90;;;;;;5006733;28;20061;-73
2023/05/06 01:09:13;;;;;;;15.90;10.30;;;9.60;99.90;;;;;;5024172;28;20045;-73
2023/05/06 01:11:51;;;;;;;11.68;8.27;;;9.60;99.90;;;;;;5007644;28;20099;-72
2023/05/06 01:14:45;;;;;;;11.43;8.40;;;9.60;99.90;;;;;;5006143;28;20045;-72
2023/05/06 01:17:12;;;;;;;11.07;8.13;;;9.50;99.90;;;;;;5023454;28;20272;-73
2023/05/06 01:19:45;;;;;;;14.85;10.23;;;9.50;99.90;;;;;;4990773;28;20079;-72
2023/05/06 01:22:11;;;;;;;23.65;10.70;;;9.50;99.90;;;;;;5022446;28;20065;-72
2023/05/06 01:24:42;;;;;;;17.20;10.27;;;9.40;99.90;;;;;;5007234;28;20375;-72
2023/05/06 01:27:09;;;;;;;17.67;9.18;;;9.40;99.90;;;;;;5025712;28;20145;-72
2023/05/06 01:29:38;;;;;;;13.25;8.32;;;9.40;99.90;;;;;;5005885;28;20041;-72
2023/05/06 01:32:16;;;;;;;15.93;9.45;;;9.40;99.90;;;;;;5024730;28;20394;-72
2023/05/06 01:35:10;;;;;;;15.75;9.95;;;9.30;99.90;;;;;;5025007;28;20087;-71
2023/05/06 01:37:42;;;;;;;16.15;10.05;;;9.30;99.90;;;;;;5008645;28;20505;-72
2023/05/06 01:40:09;;;;;;;21.13;11.90;;;9.30;99.90;;;;;;5023401;28;20060;-72
2023/05/06 01:42:37;;;;;;;19.77;13.30;;;9.40;99.90;;;;;;5026048;28;20091;-72
2023/05/06 01:45:05;;;;;;;19.55;12.25;;;9.40;99.90;;;;;;5023609;28;20050;-71
2023/05/06 01:47:32;;;;;;;26.08;15.50;;;9.40;99.90;;;;;;4990411;28;20512;-72
2023/05/06 01:49:58;;;;;;;28.58;17.05;;;9.40;99.90;;;;;;4990775;28;20037;-71
2023/05/06 01:52:25;;;;;;;22.98;14.90;;;9.50;99.90;;;;;;5020874;28;21520;-71
2023/05/06 01:54:51;;;;;;;25.13;16.20;;;9.50;99.90;;;;;;5026847;28;20272;-71
2023/05/06 01:57:17;;;;;;;26.15;16.33;;;9.50;99.90;;;;;;4991858;28;20037;-71
2023/05/06 01:59:42;;;;;;;33.97;18.88;;;9.60;99.90;;;;;;5022595;28;20042;-71
2023/05/06 02:02:08;;;;;;;22.65;15.30;;;9.70;99.90;;;;;;5023009;28;20034;-71
2023/05/06 02:04:34;;;;;;;31.30;18.75;;;9.70;99.90;;;;;;5009215;28;20394;-71
2023/05/06 02:07:00;;;;;;;22.10;14.52;;;9.80;99.90;;;;;;5021833;28;20052;-71
2023/05/06 02:09:26;;;;;;;28.33;16.75;;;9.80;99.90;;;;;;4990349;28;20038;-71
2023/05/06 02:11:51;;;;;;;28.20;16.92;;;9.80;99.90;;;;;;5008442;28;20054;-71
2023/05/06 02:14:17;;;;;;;25.23;13.73;;;9.80;99.90;;;;;;5008699;28;20034;-71
2023/05/06 02:16:43;;;;;;;23.63;13.55;;;9.80;99.90;;;;;;5003177;28;20832;-72
2023/05/06 02:19:09;;;;;;;18.05;12.23;;;9.80;99.90;;;;;;4990813;28;20129;-72
2023/05/06 02:21:35;;;;;;;22.35;13.20;;;9.70;99.90;;;;;;5004565;28;20574;-71
2023/05/06 02:24:01;;;;;;;25.45;14.80;;;9.60;99.90;;;;;;4992518;28;20052;-71
2023/05/06 02:26:26;;;;;;;20.38;12.95;;;9.60;99.90;;;;;;4991316;28;20487;-71
2023/05/06 02:28:52;;;;;;;25.85;14.82;;;9.60;99.90;;;;;;5006346;28;20041;-72
2023/05/06 02:31:18;;;;;;;21.60;13.38;;;9.60;99.90;;;;;;5006195;28;20048;-72
2023/05/06 02:33:45;;;;;;;18.83;12.73;;;9.60;99.90;;;;;;5008762;28;20045;-71
2023/05/06 02:36:10;;;;;;;16.00;10.82;;;9.50;99.90;;;;;;5022116;28;20034;-71
2023/05/06 02:38:36;;;;;;;20.13;12.63;;;9.50;99.90;;;;;;5006743;28;20079;-71
2023/05/06 02:41:02;;;;;;;25.75;14.60;;;9.40;99.90;;;;;;4991149;28;20045;-70
2023/05/06 02:43:28;;;;;;;24.00;13.95;;;9.40;99.90;;;;;;5023764;28;20510;-73
2023/05/06 02:45:54;;;;;;;21.52;12.75;;;9.40;99.90;;;;;;5025411;28;20083;-72
2023/05/06 02:48:19;;;;;;;56.97;15.90;;;9.30;99.90;;;;;;5011115;28;20048;-72
2023/05/06 02:50:45;;;;;;;353.48;36.38;;;9.20;99.90;;;;;;5029465;28;20049;-75
2023/05/06 02:53:12;;;;;;;18.25;10.15;;;9.20;99.90;;;;;;4993102;28;20045;-75
2023/05/06 02:55:38;;;;;;;15.98;9.75;;;9.10;99.90;;;;;;5016374;28;20475;-68
2023/05/06 02:58:04;;;;;;;14.48;9.20;;;9.00;99.90;;;;;;5023489;28;20037;-68
2023/05/06 03:00:29;;;;;;;12.48;8.48;;;8.90;99.90;;;;;;5010749;28;20041;-69
2023/05/06 03:02:55;;;;;;;16.50;9.70;;;8.80;99.90;;;;;;5007909;28;20414;-68
2023/05/06 03:05:21;;;;;;;22.25;11.80;;;8.70;99.90;;;;;;4995357;28;20045;-71
2023/05/06 03:07:47;;;;;;;23.08;13.40;;;8.70;99.90;;;;;;5025334;28;20406;-70
2023/05/06 03:10:13;;;;;;;17.13;11.20;;;8.60;99.90;;;;;;5028692;28;20038;-70
2023/05/06 03:12:38;;;;;;;18.55;11.25;;;8.60;99.90;;;;;;5025358;28;20050;-70
2023/05/06 03:15:05;;;;;;;35.97;17.70;;;8.60;99.90;;;;;;5009407;28;20045;-74
2023/05/06 03:17:31;;;;;;;30.15;15.48;;;8.60;99.90;;;;;;5012533;28;20111;-72
2023/05/06 03:19:57;;;;;;;42.08;19.13;;;8.60;99.90;;;;;;5027763;28;20053;-70
2023/05/06 03:22:23;;;;;;;30.98;16.45;;;8.60;99.90;;;;;;5026339;28;20034;-71
2023/05/06 03:24:48;;;;;;;63.03;21.50;;;8.70;99.90;;;;;;5031403;28;20034;-70
2023/05/06 03:27:14;;;;;;;33.08;18.50;;;8.70;99.90;;;;;;5030624;28;20118;-74
2023/05/06 03:29:40;;;;;;;43.13;20.52;;;8.70;99.90;;;;;;4998543;28;20411;-75
2023/05/06 03:32:06;;;;;;;59.80;28.52;;;8.70;99.90;;;;;;5030058;28;20144;-73
2023/05/06 03:34:31;;;;;;;47.25;22.40;;;8.90;99.90;;;;;;5030123;28;20155;-70
2023/05/06 03:36:57;;;;;;;44.70;20.30;;;8.90;99.90;;;;;;5019881;28;20034;-80
2023/05/06 03:39:23;;;;;;;29.95;16.20;;;8.90;99.90;;;;;;5025926;28;20451;-73
2023/05/06 03:41:49;;;;;;;31.83;17.25;;;8.90;99.90;;;;;;4992250;28;20124;-74
2023/05/06 03:44:15;;;;;;;29.50;16.42;;;8.80;99.90;;;;;;5008022;28;20168;-72
2023/05/06 03:46:41;;;;;;;58.42;22.60;;;8.80;99.90;;;;;;5006575;28;20116;-72
2023/05/06 03:49:09;;;;;;;64.18;26.52;;;8.80;99.90;;;;;;5009540;28;20057;-71
2023/05/06 03:51:35;;;;;;;64.70;28.17;;;8.80;99.90;;;;;;4977646;28;20037;-72
2023/05/06 03:54:02;;;;;;;42.63;21.27;;;8.90;99.90;;;;;;4991857;28;20519;-72
2023/05/06 03:56:28;;;;;;;35.65;17.85;;;8.90;99.90;;;;;;5003975;28;20049;-72
2023/05/06 03:58:54;;;;;;;30.17;16.33;;;8.90;99.90;;;;;;5022025;28;20046;-72
2023/05/06 04:01:20;;;;;;;33.95;17.42;;;8.80;99.90;;;;;;4991744;28;20052;-72
2023/05/06 04:03:46;;;;;;;27.88;16.33;;;8.80;99.90;;;;;;5024223;28;20095;-71
2023/05/06 04:06:12;;;;;;;35.97;18.02;;;8.70;99.90;;;;;;5023626;28;20037;-71
2023/05/06 04:08:37;;;;;;;30.67;15.98;;;8.70;99.90;;;;;;5024400;28;20041;-72
2023/05/06 04:11:07;;;;;;;34.33;17.70;;;8.60;99.90;;;;;;5026052;28;20090;-72
2023/05/06 04:13:33;;;;;;;53.92;23.00;;;8.70;99.90;;;;;;5023740;28;20064;-72
2023/05/06 04:16:01;;;;;;;74.97;32.20;;;8.60;99.90;;;;;;5024920;28;20046;-72
2023/05/06 04:18:27;;;;;;;46.17;20.38;;;8.70;99.90;;;;;;5009206;28;20045;-73
2023/05/06 04:20:53;;;;;;;42.00;18.33;;;8.70;99.90;;;;;;5009719;28;20403;-72
2023/05/06 04:23:19;;;;;;;46.95;19.92;;;8.70;99.90;;;;;;4992494;28;20033;-73
2023/05/06 04:25:47;;;;;;;40.35;19.27;;;8.70;99.90;;;;;;5012390;28;20044;-72
2023/05/06 04:28:17;;;;;;;76.07;25.83;;;8.70;99.90;;;;;;5012888;28;20041;-72
2023/05/06 04:30:44;;;;;;;65.38;25.20;;;8.60;99.90;;;;;;5011649;28;20044;-72
2023/05/06 04:33:10;;;;;;;81.60;32.15;;;8.60;99.90;;;;;;5011700;28;20395;-72
2023/05/06 04:35:36;;;;;;;96.30;36.63;;;8.70;99.90;;;;;;5027228;28;20040;-72
2023/05/06 04:38:02;;;;;;;66.25;27.88;;;8.80;99.90;;;;;;5012202;28;20033;-72
2023/05/06 04:40:28;;;;;;;74.32;30.02;;;8.90;99.90;;;;;;5013167;28;20462;-73
2023/05/06 04:42:54;;;;;;;80.57;31.75;;;9.00;99.90;;;;;;5011020;28;20065;-74
2023/05/06 04:45:21;;;;;;;60.72;26.58;;;8.90;99.90;;;;;;5026069;28;20088;-72
2023/05/06 04:47:47;;;;;;;63.83;27.40;;;9.00;99.90;;;;;;5024163;28;20076;-71
2023/05/06 04:50:13;;;;;;;70.10;28.70;;;9.00;99.90;;;;;;5025215;28;20158;-71
2023/05/06 04:52:39;;;;;;;93.28;36.97;;;9.10;99.90;;;;;;4993365;28;20037;-71
2023/05/06 04:55:05;;;;;;;98.90;37.83;;;9.20;99.90;;;;;;5027340;28;20037;-69
2023/05/06 04:57:31;;;;;;;78.50;31.85;;;9.20;99.90;;;;;;5010259;28;20053;-70
2023/05/06 04:59:57;;;;;;;88.18;34.10;;;9.30;99.90;;;;;;5024350;28;20040;-70
2023/05/06 05:02:23;;;;;;;96.20;37.35;;;9.30;99.90;;;;;;5025113;28;20040;-71
2023/05/06 05:04:49;;;;;;;105.88;41.63;;;9.40;99.90;;;;;;5025467;28;20083;-71
2023/05/06 05:07:15;;;;;;;113.38;42.95;;;9.50;99.90;;;;;;5024915;28;20095;-71
2023/05/06 05:09:42;;;;;;;87.85;36.88;;;9.60;99.90;;;;;;5023698;28;20041;-70
2023/05/06 05:12:07;;;;;;;104.30;39.58;;;9.60;99.90;;;;;;5022638;28;20043;-71
2023/05/06 05:14:33;;;;;;;85.63;34.58;;;9.60;99.90;;;;;;5027209;28;20036;-70
2023/05/06 05:16:59;;;;;;;75.55;32.90;;;9.70;99.90;;;;;;5007984;28;20047;-70
2023/05/06 05:19:25;;;;;;;68.90;30.40;;;9.80;99.90;;;;;;5027597;28;20045;-71
2023/05/06 05:21:51;;;;;;;80.18;33.67;;;9.80;99.90;;;;;;5009978;28;20497;-70
2023/05/06 05:24:16;;;;;;;87.18;32.95;;;9.80;99.90;;;;;;4993775;28;20037;-71
2023/05/06 05:26:42;;;;;;;70.50;29.45;;;9.80;99.90;;;;;;5009999;28;20036;-71
2023/05/06 05:29:08;;;;;;;49.97;23.00;;;9.90;99.90;;;;;;4991674;28;20552;-71
2023/05/06 05:31:34;;;;;;;40.80;20.17;;;10.00;99.90;;;;;;5007782;28;20155;-71
2023/05/06 05:34:00;;;;;;;26.67;16.58;;;9.90;99.90;;;;;;5010794;28;20045;-71
2023/05/06 05:36:26;;;;;;;28.15;16.13;;;9.90;99.90;;;;;;5025384;28;20067;-70
2023/05/06 05:38:52;;;;;;;25.02;16.13;;;10.00;99.90;;;;;;5026506;28;20040;-70
2023/05/06 05:41:18;;;;;;;24.92;15.60;;;10.00;99.90;;;;;;4989214;28;20037;-71
2023/05/06 05:43:43;;;;;;;23.95;16.48;;;10.00;99.90;;;;;;4993499;28;20132;-70
2023/05/06 05:46:09;;;;;;;29.50;18.52;;;10.00;99.90;;;;;;4991444;28;20064;-70
2023/05/06 05:48:35;;;;;;;30.60;19.40;;;10.10;99.90;;;;;;5028046;28;20116;-71
2023/05/06 05:51:01;;;;;;;36.50;20.70;;;10.10;99.90;;;;;;5023536;28;20084;-70
2023/05/06 05:53:27;;;;;;;45.15;25.33;;;10.20;99.90;;;;;;4993672;28;20498;-71
2023/05/06 05:55:53;;;;;;;40.30;22.27;;;10.30;99.90;;;;;;4990408;28;20079;-70
2023/05/06 05:58:18;;;;;;;45.80;25.58;;;10.40;99.90;;;;;;5026192;28;20369;-71
2023/05/06 06:00:44;;;;;;;50.47;28.48;;;10.50;99.90;;;;;;5025332;28;20070;-71
2023/05/06 06:03:10;;;;;;;53.95;29.08;;;10.60;99.90;;;;;;5011608;28;20478;-70
2023/05/06 06:05:36;;;;;;;59.95;30.52;;;10.80;99.90;;;;;;5026647;28;20052;-71
2023/05/06 06:08:02;;;;;;;62.17;30.75;;;10.90;99.90;;;;;;5007538;28;20037;-71
2023/05/06 06:10:28;;;;;;;58.22;28.92;;;11.20;99.90;;;;;;5010859;28;20110;-71
2023/05/06 06:12:54;;;;;;;53.30;29.13;;;11.40;99.90;;;;;;5026504;28;20387;-71
2023/05/06 06:15:20;;;;;;;49.70;28.67;;;11.50;99.90;;;;;;4994310;28;20045;-71
2023/05/06 06:17:46;;;;;;;51.95;28.70;;;11.80;99.90;;;;;;5023182;28;20537;-71
2023/05/06 06:20:12;;;;;;;49.85;28.27;;;12.00;99.90;;;;;;4992532;28;20033;-71
2023/05/06 06:22:39;;;;;;;46.83;25.50;;;12.20;99.90;;;;;;5011688;28;20483;-71
2023/05/06 06:25:06;;;;;;;41.17;25.65;;;12.40;99.90;;;;;;5026196;28;20026;-72
2023/05/06 06:27:35;;;;;;;38.97;24.50;;;12.60;99.90;;;;;;5011350;28;20048;-71
2023/05/06 06:30:02;;;;;;;40.85;24.80;;;12.70;99.90;;;;;;5010995;28;20049;-72
2023/05/06 06:32:27;;;;;;;35.45;23.13;;;12.80;99.90;;;;;;5011341;28;20319;-71
2023/05/06 06:34:53;;;;;;;30.67;21.27;;;12.90;99.90;;;;;;5007943;28;20076;-71
2023/05/06 06:37:19;;;;;;;28.50;18.67;;;13.00;99.90;;;;;;5010449;28;20037;-71
2023/05/06 06:39:45;;;;;;;31.30;20.00;;;13.00;99.90;;;;;;5028506;28;20120;-72
2023/05/06 06:42:10;;;;;;;30.30;19.33;;;13.00;99.90;;;;;;4993694;28;20041;-72
2023/05/06 06:44:36;;;;;;;31.83;19.73;;;13.10;99.90;;;;;;5008263;28;20042;-72
2023/05/06 06:47:02;;;;;;;29.45;17.67;;;13.10;99.90;;;;;;5026028;28;20041;-71
2023/05/06 06:49:29;;;;;;;26.25;17.63;;;13.20;99.90;;;;;;5027395;28;20049;-72
2023/05/06 06:51:56;;;;;;;28.88;18.27;;;13.30;99.90;;;;;;5007999;28;20487;-70
2023/05/06 06:54:22;;;;;;;27.90;18.52;;;13.40;99.90;;;;;;5002138;28;20037;-72
2023/05/06 06:56:48;;;;;;;23.60;14.13;;;13.50;99.90;;;;;;5024499;28;20053;-72
2023/05/06 06:59:14;;;;;;;19.48;13.38;;;13.60;99.90;;;;;;5026260;28;20145;-72
2023/05/06 07:01:41;;;;;;;22.35;13.95;;;13.70;99.90;;;;;;5011123;28;20168;-72
2023/05/06 07:04:06;;;;;;;22.35;13.57;;;13.70;99.90;;;;;;5025369;28;20550;-72
2023/05/06 07:06:32;;;;;;;19.20;11.95;;;13.90;99.90;;;;;;4991923;28;20752;-72
2023/05/06 07:08:58;;;;;;;18.77;12.10;;;13.90;99.90;;;;;;5011851;28;20072;-72
2023/05/06 07:11:24;;;;;;;19.52;12.38;;;14.20;99.90;;;;;;5028448;28;20121;-73
2023/05/06 07:13:49;;;;;;;18.88;11.98;;;14.70;99.90;;;;;;4994797;28;20048;-72
2023/05/06 07:16:15;;;;;;;17.92;10.73;;;15.50;99.90;;;;;;5008209;28;20509;-72
2023/05/06 07:18:41;;;;;;;18.35;11.70;;;16.30;99.90;;;;;;5009490;28;20511;-72
2023/05/06 07:21:07;;;;;;;14.80;10.35;;;16.70;99.90;;;;;;5009386;28;20037;-72
2023/05/06 07:23:32;;;;;;;16.83;10.43;;;16.80;99.90;;;;;;5025832;28;20055;-69
2023/05/06 07:25:58;;;;;;;15.55;10.98;;;16.80;99.90;;;;;;4994150;28;20037;-69
2023/05/06 07:28:24;;;;;;;17.17;11.32;;;16.40;99.90;;;;;;5021537;28;20033;-70
2023/05/06 07:30:51;;;;;;;15.95;11.50;;;16.10;99.90;;;;;;5025933;28;20120;-69
2023/05/06 07:33:17;;;;;;;17.63;11.15;;;15.70;99.90;;;;;;5024920;28;20537;-70
2023/05/06 07:35:43;;;;;;;17.02;11.90;;;15.50;99.90;;;;;;4992758;28;20042;-70
2023/05/06 07:38:09;;;;;;;17.10;11.57;;;15.90;99.90;;;;;;5008029;28;20454;-70
2023/05/06 07:40:35;;;;;;;17.38;11.30;;;16.30;99.90;;;;;;5009028;28;20157;-70
2023/05/06 07:43:01;;;;;;;16.85;11.10;;;16.60;99.90;;;;;;5008134;28;20494;-70
2023/05/06 07:45:27;;;;;;;16.92;12.05;;;16.60;99.90;;;;;;5027023;28;20051;-70
2023/05/06 07:47:53;;;;;;;17.63;12.30;;;16.70;99.90;;;;;;4989192;28;20393;-70
2023/05/06 07:50:19;;;;;;;18.40;12.93;;;16.80;99.90;;;;;;5024845;28;20387;-69
2023/05/06 07:52:44;;;;;;;17.02;11.60;;;17.00;99.90;;;;;;5023149;28;20041;-70
2023/05/06 07:55:10;;;;;;;16.35;12.32;;;17.70;99.90;;;;;;5025064;28;20041;-69
2023/05/06 07:57:36;;;;;;;19.58;13.65;;;18.40;99.90;;;;;;5008421;28;20138;-69
2023/05/06 08:00:03;;;;;;;20.48;13.85;;;18.70;99.90;;;;;;5024870;28;20094;-70
2023/05/06 08:02:30;;;;;;;18.58;12.95;;;18.60;99.90;;;;;;5009233;28;20165;-70
2023/05/06 08:04:56;;;;;;;18.80;12.80;;;18.40;99.90;;;;;;5008955;28;20037;-69
2023/05/06 08:07:22;;;;;;;19.02;13.10;;;18.20;99.90;;;;;;5009083;28;20525;-69
2023/05/06 08:09:50;;;;;;;17.58;13.48;;;18.20;99.90;;;;;;5005976;28;20041;-70
2023/05/06 08:12:16;;;;;;;18.42;12.00;;;18.70;99.90;;;;;;5022314;28;20510;-70
2023/05/06 08:14:42;;;;;;;20.30;14.07;;;18.90;99.90;;;;;;5023400;28;20052;-70
2023/05/06 08:17:07;;;;;;;19.48;12.98;;;18.90;99.90;;;;;;5022377;28;20045;-70
2023/05/06 08:19:33;;;;;;;18.15;13.77;;;19.30;99.90;;;;;;4990719;28;20555;-69
2023/05/06 08:21:59;;;;;;;17.10;13.45;;;19.00;99.90;;;;;;5024613;28;20059;-70
2023/05/06 08:24:24;;;;;;;20.48;13.52;;;19.10;99.90;;;;;;5008643;28;20038;-69
2023/05/06 08:26:50;;;;;;;16.63;11.90;;;19.60;99.90;;;;;;4992323;28;20368;-70
2023/05/06 08:29:16;;;;;;;17.33;12.50;;;20.30;99.90;;;;;;5008850;28;20521;-70
2023/05/06 08:31:42;;;;;;;13.63;9.65;;;20.50;99.90;;;;;;4991136;28;20045;-70
2023/05/06 08:34:08;;;;;;;14.88;9.98;;;20.80;99.90;;;;;;5025356;28;20045;-70
2023/05/06 08:36:34;;;;;;;14.70;10.40;;;20.80;99.90;;;;;;5009207;28;20037;-69
2023/05/06 08:39:00;;;;;;;16.33;12.25;;;21.00;99.90;;;;;;4990352;28;20076;-68
2023/05/06 08:41:27;;;;;;;15.40;10.75;;;21.30;99.90;;;;;;5005617;28;20038;-69
2023/05/06 08:43:55;;;;;;;15.60;11.32;;;20.90;98.40;;;;;;5025058;28;20300;-69
2023/05/06 08:46:21;;;;;;;18.02;12.85;;;20.70;99.40;;;;;;4992193;28;20083;-69
2023/05/06 08:48:47;;;;;;;19.83;13.98;;;21.20;99.80;;;;;;5023422;28;20045;-69
2023/05/06 08:51:16;;;;;;;20.67;13.43;;;21.20;98.90;;;;;;5008978;28;20124;-68
2023/05/06 08:53:46;;;;;;;19.52;13.15;;;20.80;98.40;;;;;;5026467;28;20041;-74
2023/05/06 08:56:13;;;;;;;19.50;13.52;;;20.80;98.30;;;;;;4992586;28;20257;-72
2023/05/06 08:58:47;;;;;;;21.63;13.93;;;21.30;99.70;;;;;;5004220;28;20809;-71
2023/05/06 09:01:15;;;;;;;22.40;15.20;;;21.40;98.70;;;;;;5010995;28;20037;-74
2023/05/06 09:03:42;;;;;;;23.27;15.63;;;21.30;97.90;;;;;;4992516;28;20037;-73
2023/05/06 09:06:09;;;;;;;23.75;15.85;;;21.10;98.60;;;;;;5005996;28;20045;-68
2023/05/06 09:08:37;;;;;;;25.92;17.23;;;20.80;98.30;;;;;;5025645;28;20104;-67
2023/05/06 09:11:17;;;;;;;23.05;13.68;;;21.00;98.70;;;;;;5016725;23;20502;-73
2023/05/06 09:13:43;;;;;;;24.00;15.15;;;20.70;97.90;;;;;;5023118;28;20505;-68
2023/05/06 09:16:08;;;;;;;25.30;14.70;;;20.80;98.60;;;;;;5027470;28;20042;-67
2023/05/06 09:18:36;;;;;;;21.20;13.65;;;21.10;98.50;;;;;;5006638;28;20041;-68
2023/05/06 09:21:03;;;;;;;20.73;14.52;;;20.70;97.60;;;;;;5029158;28;20052;-74
2023/05/06 09:23:37;;;;;;;22.42;13.52;;;20.80;97.40;;;;;;5027014;28;20045;-74
2023/05/06 09:26:02;;;;;;;14.80;8.77;;;21.00;97.90;;;;;;5030258;28;20627;-74
2023/05/06 09:28:32;;;;;;;11.93;8.50;;;21.20;97.60;;;;;;5023365;22;20069;-67
2023/05/06 09:30:58;;;;;;;19.05;11.40;;;21.60;97.30;;;;;;4976281;28;20125;-74
2023/05/06 09:33:26;;;;;;;15.20;10.98;;;21.40;97.00;;;;;;4993969;28;20073;-67
2023/05/06 09:35:52;;;;;;;11.80;7.88;;;21.60;95.90;;;;;;4977697;28;20041;-74
2023/05/06 09:38:18;;;;;;;15.25;9.20;;;21.20;95.70;;;;;;4993685;28;20107;-67
2023/05/06 09:40:44;;;;;;;13.32;8.35;;;20.90;95.90;;;;;;5009002;28;20064;-67
2023/05/06 09:43:16;;;;;;;15.73;10.60;;;20.90;95.80;;;;;;5035463;22;20507;-71
2023/05/06 09:45:43;;;;;;;13.98;10.50;;;20.20;96.30;;;;;;5045425;23;20494;-67
2023/05/06 09:48:09;;;;;;;16.08;11.00;;;19.90;97.30;;;;;;5049685;28;20041;-69
2023/05/06 09:50:35;;;;;;;14.80;10.77;;;20.10;98.60;;;;;;5047695;28;20102;-68
2023/05/06 09:53:03;;;;;;;14.85;10.50;;;20.20;99.00;;;;;;5045979;28;20037;-69
2023/05/06 09:55:29;;;;;;;15.45;11.55;;;20.80;98.70;;;;;;5037737;28;20034;-68
2023/05/06 09:57:56;;;;;;;12.95;10.30;;;21.00;98.50;;;;;;5048366;28;20410;-68
2023/05/06 10:00:26;;;;;;;15.68;10.00;;;21.50;99.30;;;;;;5045937;28;20033;-69
2023/05/06 10:02:53;;;;;;;15.43;9.93;;;21.30;98.10;;;;;;5018309;28;20558;-68
2023/05/06 10:05:20;;;;;;;18.75;11.02;;;21.70;97.80;;;;;;5038040;28;20044;-69
2023/05/06 10:07:48;;;;;;;19.13;11.50;;;21.80;98.10;;;;;;5030934;28;20416;-66
2023/05/06 10:10:15;;;;;;;15.57;10.95;;;21.20;97.40;;;;;;5046827;28;20532;-66
2023/05/06 10:12:41;;;;;;;12.15;10.48;;;20.90;97.60;;;;;;5031479;28;20087;-69
2023/05/06 10:15:08;;;;;;;14.57;9.98;;;20.70;98.20;;;;;;5029721;28;20037;-69
2023/05/06 10:17:36;;;;;;;18.48;8.38;;;20.80;98.70;;;;;;5062076;28;20187;-70
2023/05/06 10:20:06;;;;;;;9.40;7.00;;;20.90;98.30;;;;;;5026812;28;20037;-69
2023/05/06 10:23:02;;;;;;;12.85;6.78;;;21.20;98.10;;;;;;5048323;28;20486;-71
2023/05/06 10:25:42;;;;;;;10.40;5.80;;;21.60;96.80;;;;;;5025062;28;20040;-69
2023/05/06 10:28:09;;;;;;;9.52;6.05;;;20.70;96.20;;;;;;5043594;28;20045;-69
2023/05/06 10:30:37;;;;;;;7.85;6.65;;;20.40;96.90;;;;;;5024727;28;20064;-69
2023/05/06 10:33:07;;;;;;;9.02;6.53;;;20.10;97.60;;;;;;5042949;28;20128;-69
2023/05/06 10:35:49;;;;;;;10.75;7.00;;;19.90;97.70;;;;;;5040581;28;20040;-69
2023/05/06 10:38:29;;;;;;;9.55;6.60;;;20.00;97.80;;;;;;5040934;28;20506;-69
2023/05/06 10:40:56;;;;;;;9.27;5.78;;;20.10;97.30;;;;;;5042758;28;20043;-69
2023/05/06 10:43:24;;;;;;;9.93;5.95;;;20.20;97.50;;;;;;5026249;28;20036;-71
2023/05/06 10:45:59;;;;;;;10.85;6.70;;;20.70;97.40;;;;;;5040838;28;20057;-71
2023/05/06 10:48:26;;;;;;;10.50;7.95;;;20.50;97.20;;;;;;5046525;28;20545;-70
2023/05/06 10:51:14;;;;;;;11.80;8.68;;;20.00;96.10;;;;;;5025831;28;20522;-68
2023/05/06 10:54:03;;;;;;;11.82;7.95;;;19.50;97.00;;;;;;5045286;28;20536;-68
2023/05/06 10:56:31;;;;;;;13.38;8.40;;;19.30;97.40;;;;;;5024042;28;20554;-69
2023/05/06 10:59:00;;;;;;;13.32;8.55;;;19.20;97.40;;;;;;5026009;28;20037;-68
2023/05/06 11:01:27;;;;;;;14.95;8.30;;;19.00;97.60;;;;;;5042646;28;20115;-67
2023/05/06 11:03:53;;;;;;;13.40;9.32;;;18.90;98.80;;;;;;5037464;28;20079;-68
2023/05/06 11:06:35;;;;;;;14.30;9.07;;;18.80;99.30;;;;;;5043985;28;20041;-68
2023/05/06 11:09:03;;;;;;;14.73;9.03;;;18.90;99.00;;;;;;5046759;28;20048;-72
2023/05/06 11:11:48;;;;;;;12.27;9.15;;;18.80;98.90;;;;;;5029719;28;20076;-71
2023/05/06 11:14:23;;;;;;;17.70;9.55;;;18.80;99.10;;;;;;5047723;28;20390;-71
2023/05/06 11:16:50;;;;;;;14.70;8.10;;;18.90;99.10;;;;;;5027923;28;20048;-70
2023/05/06 11:19:25;;;;;;;10.38;7.93;;;19.00;99.50;;;;;;5044664;28;20629;-70
2023/05/06 11:21:53;;;;;;;12.00;7.47;;;19.20;98.70;;;;;;5045926;28;20120;-73
2023/05/06 11:24:24;;;;;;;11.63;8.15;;;19.50;98.40;;;;;;5029867;28;20327;-68
2023/05/06 11:26:50;;;;;;;14.38;8.75;;;19.40;97.50;;;;;;5062890;28;20041;-66
2023/05/06 11:29:17;;;;;;;10.45;8.35;;;19.50;98.10;;;;;;5030252;28;20033;-70
2023/05/06 11:31:44;;;;;;;11.23;8.50;;;19.60;98.70;;;;;;5044867;28;20052;-70
2023/05/06 11:34:12;;;;;;;12.27;9.00;;;19.60;98.00;;;;;;5027889;28;20513;-71
2023/05/06 11:36:50;;;;;;;12.88;8.88;;;19.80;98.10;;;;;;5046181;28;20041;-72
2023/05/06 11:39:16;;;;;;;11.13;9.13;;;20.00;98.10;;;;;;5029739;28;20095;-69
2023/05/06 11:41:41;;;;;;;12.60;9.00;;;20.10;98.00;;;;;;5026256;28;20451;-70
2023/05/06 11:44:09;;;;;;;13.55;9.95;;;19.90;97.40;;;;;;5028333;28;20048;-71
2023/05/06 11:46:35;;;;;;;13.10;9.10;;;19.80;98.20;;;;;;5045264;28;20131;-70
2023/05/06 11:49:00;;;;;;;13.50;10.43;;;19.80;98.50;;;;;;5027371;28;20404;-70
2023/05/06 11:51:26;;;;;;;13.07;9.98;;;19.80;98.20;;;;;;5029628;28;20100;-70
2023/05/06 11:54:07;;;;;;;14.90;9.98;;;19.80;98.20;;;;;;5034309;28;20513;-70
2023/05/06 11:56:47;;;;;;;12.25;9.55;;;19.70;97.80;;;;;;5051473;28;20080;-70
2023/05/06 11:59:13;;;;;;;11.85;9.20;;;19.80;98.00;;;;;;5044236;28;20127;-70
2023/05/06 12:01:43;;;;;;;13.15;9.57;;;19.70;97.50;;;;;;5050079;28;20112;-70
2023/05/06 12:04:10;;;;;;;12.93;10.50;;;19.60;97.60;;;;;;5048152;28;20457;-70
2023/05/06 12:06:36;;;;;;;14.02;10.20;;;19.60;97.90;;;;;;5022904;28;20383;-69
2023/05/06 12:09:09;;;;;;;12.40;9.52;;;19.70;97.90;;;;;;5032701;28;20084;-69
2023/05/06 12:11:36;;;;;;;13.88;10.77;;;19.90;97.80;;;;;;5049484;28;20072;-69
2023/05/06 12:14:05;;;;;;;14.05;10.50;;;19.90;97.30;;;;;;5033190;28;20045;-70
2023/05/06 12:16:32;;;;;;;13.73;10.32;;;20.20;98.10;;;;;;5033926;28;20525;-71
2023/05/06 12:18:58;;;;;;;15.80;10.63;;;20.40;98.00;;;;;;5046190;28;20513;-71
2023/05/06 12:21:25;;;;;;;13.45;10.05;;;20.40;97.40;;;;;;5031880;28;20107;-71
2023/05/06 12:23:55;;;;;;;12.68;9.60;;;20.40;96.30;;;;;;5031801;28;20075;-71
2023/05/06 12:26:21;;;;;;;10.70;9.02;;;20.80;97.00;;;;;;5047122;28;20095;-72
2023/05/06 12:29:06;;;;;;;13.07;7.85;;;21.10;95.70;;;;;;5015648;28;20037;-71
2023/05/06 12:31:33;;;;;;;11.70;9.65;;;21.30;95.40;;;;;;5050362;28;20124;-72
2023/05/06 12:33:59;;;;;;;11.18;9.93;;;21.60;95.70;;;;;;5011114;28;20051;-72